Not for real navigation | The accuracy of this data is not assured | See disclaimer for more information
ICAO NAME COUNTRY WIND Kt GUST Kt VIS TEMP/DEW BARO
CYVQ Norman Wells, N. W. T. Canada 2 0 9999 -42/-46 30.42
CYVQ 170400Z 07002KT 30SM CAVOK M42/M46 A3042 RMK SLP321
CYUS Shepherd Bay, N. W. T. Canada 14 0 9999 -41/0 29.47
CYUS 170400Z AUTO 07014KT ////SM //// NCD M41/// A2947
CYUX Hall Beach, N. W. T. Canada 11 0 9999 -41/-45 29.43
CYUX 170400Z AUTO 31011KT 9SM CAVOK M41/M45 A2943 RMK SLP969
CYZS Coral Harbour, N. W. T. Canada 9 0 19200 -41/-44 29.36
CYZS 170400Z 34009KT 12SM IC FEW003 SCT100 M41/M44 A2936 RMK ST1AC3 SLP957
PAQT NUIQSUT AIRPORT AK United States 6 0 9999 -41/0 30.03
PAQT 170353Z AUTO 19006KT 7SM CAVOK M41/ A3003 RMK AO2 SLP171 T1406 TS PNO

Show more

Close Menu